createdAt,value
2022-10-23T00:00:13.770Z,998.32
2022-10-23T00:01:14.139Z,998.32
2022-10-23T00:02:26.531Z,998.30
2022-10-23T00:03:13.944Z,998.34
2022-10-23T00:04:13.282Z,998.35
2022-10-23T00:05:13.310Z,998.37
2022-10-23T00:06:13.582Z,998.35
2022-10-23T00:07:49.457Z,998.29
2022-10-23T00:08:13.182Z,998.25
2022-10-23T00:09:13.388Z,998.27
2022-10-23T00:10:34.148Z,998.26
2022-10-23T00:11:13.227Z,998.26
2022-10-23T00:12:13.528Z,998.25
2022-10-23T00:13:13.632Z,998.31
2022-10-23T00:14:13.826Z,998.33
2022-10-23T00:15:14.127Z,998.34
2022-10-23T00:16:13.196Z,998.36
2022-10-23T00:17:13.253Z,998.31
2022-10-23T00:18:13.224Z,998.33
2022-10-23T00:19:13.191Z,998.27
2022-10-23T00:20:13.123Z,998.25
2022-10-23T00:21:13.337Z,998.23
2022-10-23T00:22:13.377Z,998.26
2022-10-23T00:23:13.474Z,998.28
2022-10-23T00:24:13.639Z,998.30
2022-10-23T00:25:13.613Z,998.32
2022-10-23T00:26:13.416Z,998.33
2022-10-23T00:27:13.346Z,998.31
2022-10-23T00:28:13.371Z,998.31
2022-10-23T00:29:13.538Z,998.25
2022-10-23T00:30:13.635Z,998.30
2022-10-23T00:31:13.609Z,998.28
2022-10-23T00:32:13.437Z,998.22
2022-10-23T00:33:13.331Z,998.26
2022-10-23T00:34:13.786Z,998.26
2022-10-23T00:35:14.080Z,998.28
2022-10-23T00:36:13.157Z,998.33
2022-10-23T00:37:12.989Z,998.34
2022-10-23T00:38:14.178Z,998.38
2022-10-23T00:39:13.383Z,998.36
2022-10-23T00:40:13.291Z,998.34
2022-10-23T00:41:13.217Z,998.35
2022-10-23T00:42:13.098Z,998.31
2022-10-23T00:43:13.461Z,998.30
2022-10-23T00:44:13.804Z,998.29
2022-10-23T00:45:13.784Z,998.29
2022-10-23T00:46:13.895Z,998.34
2022-10-23T00:47:12.921Z,998.31
2022-10-23T00:48:12.946Z,998.32
2022-10-23T00:50:13.959Z,998.30
2022-10-23T00:51:12.886Z,998.35
2022-10-23T00:52:12.774Z,998.36
2022-10-23T00:53:13.868Z,998.36
2022-10-23T00:54:24.816Z,998.34
2022-10-23T00:55:13.105Z,998.34
2022-10-23T00:56:13.151Z,998.34
2022-10-23T00:57:13.276Z,998.39
2022-10-23T00:58:13.330Z,998.35
2022-10-23T00:59:13.761Z,998.40
2022-10-23T01:00:13.794Z,998.39
2022-10-23T01:01:14.019Z,998.37
2022-10-23T01:02:13.188Z,998.37
2022-10-23T01:03:13.323Z,998.37
2022-10-23T01:04:13.463Z,998.36
2022-10-23T01:05:13.594Z,998.35
2022-10-23T01:06:13.835Z,998.33
2022-10-23T01:07:13.672Z,998.30
2022-10-23T01:08:13.573Z,998.29
2022-10-23T01:09:13.561Z,998.26
2022-10-23T01:10:13.761Z,998.30
2022-10-23T01:11:13.647Z,998.28
2022-10-23T01:12:13.602Z,998.25
2022-10-23T01:13:13.785Z,998.23
2022-10-23T01:14:14.071Z,998.23
2022-10-23T01:15:12.926Z,998.25
2022-10-23T01:16:12.807Z,998.26
2022-10-23T01:17:14.072Z,998.22
2022-10-23T01:18:13.165Z,998.23
2022-10-23T01:19:13.061Z,998.25
2022-10-23T01:20:12.973Z,998.25
2022-10-23T01:21:13.015Z,998.21
2022-10-23T01:22:13.275Z,998.20
2022-10-23T01:23:13.359Z,998.21
2022-10-23T01:24:13.666Z,998.20
2022-10-23T01:25:13.569Z,998.18
2022-10-23T01:26:13.482Z,998.19
2022-10-23T01:27:13.347Z,998.18
2022-10-23T01:28:13.405Z,998.15
2022-10-23T01:29:13.306Z,998.12
2022-10-23T01:30:13.181Z,998.12
2022-10-23T01:31:13.229Z,998.12
2022-10-23T01:32:13.309Z,998.09
2022-10-23T01:33:13.440Z,998.12
2022-10-23T01:34:13.439Z,998.09
2022-10-23T01:35:13.560Z,998.08
2022-10-23T01:36:13.750Z,998.08
2022-10-23T01:37:13.861Z,998.10
2022-10-23T01:38:13.735Z,998.12
2022-10-23T01:39:14.043Z,998.08
2022-10-23T01:40:12.843Z,998.08
2022-10-23T01:41:13.905Z,998.04
2022-10-23T01:42:12.788Z,998.10
2022-10-23T01:43:13.690Z,998.10
2022-10-23T01:44:13.734Z,998.07
2022-10-23T01:45:13.765Z,998.05
2022-10-23T01:46:13.852Z,998.04
2022-10-23T01:47:14.408Z,998.02
2022-10-23T01:48:13.850Z,998.03
2022-10-23T01:49:14.059Z,998.01
2022-10-23T01:50:13.108Z,998.01
2022-10-23T01:51:14.496Z,997.98
2022-10-23T01:52:13.963Z,997.95
2022-10-23T01:53:13.004Z,997.91
2022-10-23T01:54:12.896Z,997.92
2022-10-23T01:55:12.816Z,997.95
2022-10-23T01:56:14.000Z,997.92
2022-10-23T01:57:12.882Z,997.93
2022-10-23T01:58:13.990Z,997.89
2022-10-23T01:59:14.139Z,997.88
2022-10-23T02:00:13.317Z,997.89
2022-10-23T02:01:18.577Z,997.87
2022-10-23T02:02:13.723Z,997.85
2022-10-23T02:03:13.701Z,997.88
2022-10-23T02:04:13.967Z,997.85
2022-10-23T02:05:13.014Z,997.82
2022-10-23T02:06:12.932Z,997.82
2022-10-23T02:07:13.141Z,997.81
2022-10-23T02:08:13.095Z,997.78
2022-10-23T02:09:13.053Z,997.77
2022-10-23T02:10:13.280Z,997.69
2022-10-23T02:11:13.180Z,997.67
2022-10-23T02:12:13.148Z,997.69
2022-10-23T02:13:13.386Z,997.64
2022-10-23T02:14:13.662Z,997.66
2022-10-23T02:15:13.794Z,997.66
2022-10-23T02:16:14.012Z,997.65
2022-10-23T02:17:13.080Z,997.61
2022-10-23T02:18:13.143Z,997.60
2022-10-23T02:19:13.268Z,997.60
2022-10-23T02:20:13.339Z,997.57
2022-10-23T02:21:13.357Z,997.53
2022-10-23T02:22:13.248Z,997.53
2022-10-23T02:23:13.157Z,997.54
2022-10-23T02:24:13.226Z,997.55
2022-10-23T02:25:13.134Z,997.54
2022-10-23T02:26:13.716Z,997.56
2022-10-23T02:27:13.934Z,997.55
2022-10-23T02:28:12.906Z,997.55
2022-10-23T02:29:12.743Z,997.56
2022-10-23T02:30:13.506Z,997.50
2022-10-23T02:31:13.412Z,997.52
2022-10-23T02:32:13.428Z,997.48
2022-10-23T02:33:13.204Z,997.48
2022-10-23T02:34:13.106Z,997.49
2022-10-23T02:35:12.929Z,997.45
2022-10-23T02:36:12.927Z,997.50
2022-10-23T02:37:13.024Z,997.45
2022-10-23T02:38:13.261Z,997.42
2022-10-23T02:39:13.271Z,997.42
2022-10-23T02:40:13.149Z,997.41
2022-10-23T02:41:13.332Z,997.39
2022-10-23T02:42:13.213Z,997.40
2022-10-23T02:43:13.534Z,997.38
2022-10-23T02:44:13.338Z,997.42
2022-10-23T02:45:13.277Z,997.36
2022-10-23T02:46:13.385Z,997.31
2022-10-23T02:47:13.274Z,997.34
2022-10-23T02:48:13.302Z,997.33
2022-10-23T02:49:13.601Z,997.35
2022-10-23T02:50:13.461Z,997.28
2022-10-23T02:51:13.289Z,997.30
2022-10-23T02:52:13.268Z,997.28
2022-10-23T02:53:13.289Z,997.25
2022-10-23T02:54:13.419Z,997.21
2022-10-23T02:55:13.352Z,997.17
2022-10-23T02:56:13.280Z,997.16
2022-10-23T02:57:13.523Z,997.17
2022-10-23T02:58:13.432Z,997.17
2022-10-23T02:59:13.526Z,997.14
2022-10-23T03:00:13.481Z,997.15
2022-10-23T03:01:13.480Z,997.15
2022-10-23T03:02:13.520Z,997.14
2022-10-23T03:03:13.675Z,997.16
2022-10-23T03:04:13.617Z,997.14
2022-10-23T03:05:13.797Z,997.14
2022-10-23T03:06:14.038Z,997.12
2022-10-23T03:07:13.458Z,997.13
2022-10-23T03:08:13.313Z,997.12
2022-10-23T03:09:13.153Z,997.12
2022-10-23T03:10:13.050Z,997.09
2022-10-23T03:11:13.319Z,997.12
2022-10-23T03:12:13.140Z,997.11
2022-10-23T03:13:13.071Z,997.12
2022-10-23T03:14:13.111Z,997.13
2022-10-23T03:15:13.038Z,997.13
2022-10-23T03:16:12.944Z,997.14
2022-10-23T03:17:12.872Z,997.12
2022-10-23T03:18:13.958Z,997.16
2022-10-23T03:19:12.915Z,997.12
2022-10-23T03:20:12.740Z,997.12
2022-10-23T03:21:13.555Z,997.08
2022-10-23T03:22:13.443Z,997.09
2022-10-23T03:23:13.475Z,997.01
2022-10-23T03:24:13.599Z,996.99
2022-10-23T03:25:13.624Z,996.94
2022-10-23T03:26:13.935Z,996.90
2022-10-23T03:27:12.874Z,996.90
2022-10-23T03:28:14.258Z,996.88
2022-10-23T03:29:13.184Z,996.86
2022-10-23T03:30:13.198Z,996.87
2022-10-23T03:31:13.120Z,996.85
2022-10-23T03:32:13.182Z,996.89
2022-10-23T03:33:13.202Z,996.81
2022-10-23T03:34:13.113Z,996.82
2022-10-23T03:35:13.012Z,996.85
2022-10-23T03:36:12.983Z,996.84
2022-10-23T03:37:12.928Z,996.82
2022-10-23T03:38:12.856Z,996.81
2022-10-23T03:39:13.741Z,996.78
2022-10-23T03:40:13.661Z,996.79
2022-10-23T03:41:13.563Z,996.79
2022-10-23T03:42:18.473Z,996.78
2022-10-23T03:43:13.434Z,996.75
2022-10-23T03:44:13.399Z,996.76
2022-10-23T03:45:13.466Z,996.75
2022-10-23T03:46:13.357Z,996.70
2022-10-23T03:47:13.585Z,996.73
2022-10-23T03:48:13.544Z,996.68
2022-10-23T03:49:13.448Z,996.66
2022-10-23T03:50:13.326Z,996.66
2022-10-23T03:51:13.270Z,996.65
2022-10-23T03:52:13.236Z,996.59
2022-10-23T03:53:13.372Z,996.59
2022-10-23T03:54:13.302Z,996.56
2022-10-23T03:55:13.304Z,996.54
2022-10-23T03:56:13.224Z,996.55
2022-10-23T03:57:13.584Z,996.52
2022-10-23T03:58:13.557Z,996.52
2022-10-23T03:59:13.718Z,996.51
2022-10-23T04:00:13.647Z,996.55
2022-10-23T04:01:13.675Z,996.58
2022-10-23T04:02:14.093Z,996.60
2022-10-23T04:03:13.106Z,996.61
2022-10-23T04:04:13.038Z,996.64
2022-10-23T04:05:12.882Z,996.61
2022-10-23T04:06:14.084Z,996.59
2022-10-23T04:07:13.304Z,996.58
2022-10-23T04:08:17.524Z,996.55
2022-10-23T04:10:13.481Z,996.51
2022-10-23T04:11:13.818Z,996.52
2022-10-23T04:12:13.991Z,996.54
2022-10-23T04:13:12.957Z,996.57
2022-10-23T04:14:12.959Z,996.57
2022-10-23T04:15:12.881Z,996.53
2022-10-23T04:16:12.995Z,996.48
2022-10-23T04:17:13.395Z,996.44
2022-10-23T04:18:13.511Z,996.43
2022-10-23T04:19:13.389Z,996.40
2022-10-23T04:20:13.571Z,996.41
2022-10-23T04:21:13.479Z,996.43
2022-10-23T04:22:13.355Z,996.44
2022-10-23T04:23:13.501Z,996.45
2022-10-23T04:24:19.699Z,996.47
2022-10-23T04:25:13.733Z,996.48
2022-10-23T04:26:14.139Z,996.51
2022-10-23T04:27:13.281Z,996.53
2022-10-23T04:28:13.061Z,996.55
2022-10-23T04:29:13.131Z,996.53
2022-10-23T04:30:13.414Z,996.54
2022-10-23T04:31:13.306Z,996.54
2022-10-23T04:32:13.263Z,996.50
2022-10-23T04:33:13.179Z,996.51
2022-10-23T04:34:13.295Z,996.49
2022-10-23T04:35:13.173Z,996.50
2022-10-23T04:36:12.997Z,996.48
2022-10-23T04:37:13.126Z,996.50
2022-10-23T04:38:13.213Z,996.48
2022-10-23T04:39:13.362Z,996.49
2022-10-23T04:40:13.472Z,996.44
2022-10-23T04:41:13.485Z,996.39
2022-10-23T04:42:14.283Z,996.40
2022-10-23T04:43:13.293Z,996.43
2022-10-23T04:44:14.302Z,996.41
2022-10-23T04:45:13.253Z,996.42
2022-10-23T04:46:13.233Z,996.41
2022-10-23T04:47:13.138Z,996.43
2022-10-23T04:48:13.451Z,996.39
2022-10-23T04:49:13.346Z,996.37
2022-10-23T04:50:13.213Z,996.40
2022-10-23T04:51:13.496Z,996.41
2022-10-23T04:52:13.871Z,996.38
2022-10-23T04:53:13.934Z,996.42
2022-10-23T04:54:12.993Z,996.39
2022-10-23T04:55:12.866Z,996.38
2022-10-23T04:56:14.057Z,996.40
2022-10-23T04:57:13.245Z,996.35
2022-10-23T04:58:13.623Z,996.31
2022-10-23T04:59:13.496Z,996.28
2022-10-23T05:00:13.429Z,996.26
2022-10-23T05:01:13.380Z,996.20
2022-10-23T05:02:13.325Z,996.20
2022-10-23T05:03:13.532Z,996.19
2022-10-23T05:04:13.438Z,996.22
2022-10-23T05:05:13.955Z,996.22
2022-10-23T05:06:12.861Z,996.22
2022-10-23T05:07:13.883Z,996.21
2022-10-23T05:08:15.641Z,996.19
2022-10-23T05:09:12.919Z,996.17
2022-10-23T05:10:12.894Z,996.15
2022-10-23T05:11:13.803Z,996.12
2022-10-23T05:12:13.789Z,996.08
2022-10-23T05:13:14.070Z,996.10
2022-10-23T05:14:13.158Z,996.07
2022-10-23T05:15:13.498Z,996.06
2022-10-23T05:16:13.492Z,996.09
2022-10-23T05:17:13.592Z,996.11
2022-10-23T05:18:13.485Z,996.14
2022-10-23T05:19:13.443Z,996.14
2022-10-23T05:20:13.325Z,996.18
2022-10-23T05:21:13.279Z,996.23
2022-10-23T05:22:13.153Z,996.19
2022-10-23T05:23:12.995Z,996.15
2022-10-23T05:24:13.096Z,996.15
2022-10-23T05:25:13.355Z,996.10
2022-10-23T05:26:13.203Z,996.12
2022-10-23T05:27:13.210Z,996.11
2022-10-23T05:28:13.358Z,996.12
2022-10-23T05:29:13.401Z,996.14
2022-10-23T05:30:13.186Z,996.13
2022-10-23T05:31:13.037Z,996.10
2022-10-23T05:32:13.229Z,996.08
2022-10-23T05:33:13.388Z,996.08
2022-10-23T05:34:13.536Z,996.11
2022-10-23T05:35:13.519Z,996.09
2022-10-23T05:36:13.496Z,996.10
2022-10-23T05:37:13.483Z,996.09
2022-10-23T05:38:13.533Z,996.07
2022-10-23T05:39:13.522Z,996.10
2022-10-23T05:40:14.020Z,996.08
2022-10-23T05:41:13.412Z,996.04
2022-10-23T05:42:13.711Z,996.02
2022-10-23T05:43:13.700Z,995.97
2022-10-23T05:44:13.738Z,995.95
2022-10-23T05:45:13.611Z,996.01
2022-10-23T05:46:13.619Z,996.01
2022-10-23T05:47:13.549Z,996.03
2022-10-23T05:48:29.874Z,996.02
2022-10-23T05:49:12.735Z,996.03
2022-10-23T05:50:13.840Z,996.00
2022-10-23T05:51:14.098Z,996.03
2022-10-23T05:52:13.118Z,995.98
2022-10-23T05:53:13.443Z,996.00
2022-10-23T05:54:13.690Z,995.95
2022-10-23T05:55:13.597Z,995.98
2022-10-23T05:56:13.809Z,995.96
2022-10-23T05:57:13.990Z,995.96
2022-10-23T05:58:13.147Z,995.97
2022-10-23T05:59:13.284Z,995.95
2022-10-23T06:00:13.354Z,995.93
2022-10-23T06:01:13.502Z,995.94
2022-10-23T06:02:13.618Z,995.92
2022-10-23T06:03:13.717Z,995.90
2022-10-23T06:04:13.575Z,995.94
2022-10-23T06:05:14.353Z,995.91
2022-10-23T06:06:14.016Z,995.86
2022-10-23T06:07:12.889Z,995.84
2022-10-23T06:08:13.857Z,995.81
2022-10-23T06:09:14.080Z,995.82
2022-10-23T06:10:13.145Z,995.78
2022-10-23T06:11:13.173Z,995.75
2022-10-23T06:12:13.092Z,995.68
2022-10-23T06:13:13.069Z,995.64
2022-10-23T06:14:13.362Z,995.61
2022-10-23T06:15:13.345Z,995.58
2022-10-23T06:16:14.421Z,995.55
2022-10-23T06:17:13.438Z,995.57
2022-10-23T06:18:13.896Z,995.57
2022-10-23T06:19:12.729Z,995.62
2022-10-23T06:20:13.552Z,995.61
2022-10-23T06:21:13.801Z,995.57
2022-10-23T06:22:13.904Z,995.60
2022-10-23T06:23:12.994Z,995.61
2022-10-23T06:24:12.907Z,995.60
2022-10-23T06:25:12.747Z,995.57
2022-10-23T06:26:13.644Z,995.57
2022-10-23T06:27:13.682Z,995.55
2022-10-23T06:28:16.992Z,995.54
2022-10-23T06:29:13.815Z,995.54
2022-10-23T06:30:13.620Z,995.53
2022-10-23T06:31:13.450Z,995.50
2022-10-23T06:32:13.419Z,995.53
2022-10-23T06:33:13.308Z,995.49
2022-10-23T06:34:13.318Z,995.48
2022-10-23T06:35:13.360Z,995.48
2022-10-23T06:36:13.253Z,995.46
2022-10-23T06:37:13.476Z,995.47
2022-10-23T06:38:13.303Z,995.47
2022-10-23T06:39:13.480Z,995.46
2022-10-23T06:40:13.582Z,995.48
2022-10-23T06:41:13.700Z,995.51
2022-10-23T06:42:13.575Z,995.49
2022-10-23T06:43:13.479Z,995.51
2022-10-23T06:44:13.484Z,995.51
2022-10-23T06:45:13.458Z,995.53
2022-10-23T06:46:13.420Z,995.54
2022-10-23T06:47:13.353Z,995.53
2022-10-23T06:48:13.194Z,995.48
2022-10-23T06:49:13.012Z,995.50
2022-10-23T06:50:15.434Z,995.52
2022-10-23T06:51:13.720Z,995.48
2022-10-23T06:52:18.432Z,995.53
2022-10-23T06:53:13.909Z,995.52
2022-10-23T06:54:59.223Z,995.54
2022-10-23T06:55:13.349Z,995.53
2022-10-23T06:56:13.359Z,995.55
2022-10-23T06:57:13.453Z,995.57
2022-10-23T06:58:13.583Z,995.59
2022-10-23T06:59:13.622Z,995.54
2022-10-23T07:00:13.612Z,995.60
2022-10-23T07:01:14.272Z,995.58
2022-10-23T07:02:23.893Z,995.59
2022-10-23T07:03:13.070Z,995.61
2022-10-23T07:04:13.184Z,995.61
2022-10-23T07:05:13.899Z,995.60
2022-10-23T07:06:13.065Z,995.61
2022-10-23T07:07:12.891Z,995.65
2022-10-23T07:08:13.087Z,995.65
2022-10-23T07:09:13.216Z,995.58
2022-10-23T07:11:13.250Z,995.61
2022-10-23T07:12:14.320Z,995.62
2022-10-23T07:13:13.425Z,995.65
2022-10-23T07:14:13.299Z,995.62
2022-10-23T07:15:13.422Z,995.61
2022-10-23T07:16:13.573Z,995.59
2022-10-23T07:17:13.964Z,995.61
2022-10-23T07:18:12.852Z,995.62
2022-10-23T07:19:13.798Z,995.59
2022-10-23T07:20:13.894Z,995.60
2022-10-23T07:21:13.116Z,995.58
2022-10-23T07:22:15.746Z,995.55
2022-10-23T07:23:15.257Z,995.54
2022-10-23T07:24:13.308Z,995.55
2022-10-23T07:25:13.538Z,995.56
2022-10-23T07:26:13.436Z,995.52
2022-10-23T07:27:13.405Z,995.52
2022-10-23T07:28:13.637Z,995.51
2022-10-23T07:29:13.666Z,995.53
2022-10-23T07:30:13.849Z,995.53
2022-10-23T07:31:13.923Z,995.53
2022-10-23T07:32:12.859Z,995.54
2022-10-23T07:33:13.875Z,995.48
2022-10-23T07:34:14.056Z,995.48
2022-10-23T07:36:13.159Z,995.49
2022-10-23T07:37:13.349Z,995.50
2022-10-23T07:38:13.454Z,995.52
2022-10-23T07:39:13.407Z,995.55
2022-10-23T07:40:13.341Z,995.54
2022-10-23T07:41:13.425Z,995.55
2022-10-23T07:42:13.641Z,995.55
2022-10-23T07:43:13.647Z,995.54
2022-10-23T07:44:13.755Z,995.51
2022-10-23T07:45:13.636Z,995.49
2022-10-23T07:46:13.662Z,995.48
2022-10-23T07:47:13.593Z,995.52
2022-10-23T07:48:13.427Z,995.51
2022-10-23T07:49:13.744Z,995.50
2022-10-23T07:50:13.630Z,995.47
2022-10-23T07:51:13.513Z,995.47
2022-10-23T07:52:13.390Z,995.50
2022-10-23T07:53:13.328Z,995.53
2022-10-23T07:54:13.166Z,995.49
2022-10-23T07:55:13.341Z,995.46
2022-10-23T07:56:13.404Z,995.47
2022-10-23T07:57:13.560Z,995.44
2022-10-23T07:58:13.605Z,995.42
2022-10-23T07:59:13.521Z,995.41
2022-10-23T08:00:13.498Z,995.41
2022-10-23T08:01:13.491Z,995.41
2022-10-23T08:02:13.556Z,995.36
2022-10-23T08:03:13.548Z,995.40
2022-10-23T08:04:13.471Z,995.37
2022-10-23T08:05:13.502Z,995.34
2022-10-23T08:06:13.412Z,995.38
2022-10-23T08:07:13.508Z,995.35
2022-10-23T08:08:13.424Z,995.33
2022-10-23T08:09:13.540Z,995.31
2022-10-23T08:10:13.783Z,995.38
2022-10-23T08:11:14.182Z,995.33
2022-10-23T08:12:13.054Z,995.36
2022-10-23T08:13:13.552Z,995.36
2022-10-23T08:14:13.790Z,995.33
2022-10-23T08:15:13.700Z,995.33
2022-10-23T08:16:13.969Z,995.29
2022-10-23T08:17:12.890Z,995.29
2022-10-23T08:18:12.932Z,995.34
2022-10-23T08:19:12.784Z,995.29
2022-10-23T08:20:13.867Z,995.27
2022-10-23T08:21:14.042Z,995.32
2022-10-23T08:22:13.239Z,995.24
2022-10-23T08:23:13.535Z,995.27
2022-10-23T08:24:13.521Z,995.23
2022-10-23T08:25:13.452Z,995.21
2022-10-23T08:26:13.366Z,995.21
2022-10-23T08:27:13.469Z,995.20
2022-10-23T08:28:13.466Z,995.20
2022-10-23T08:29:18.842Z,995.20
2022-10-23T08:31:38.880Z,995.14
2022-10-23T08:32:14.224Z,995.18
2022-10-23T08:33:13.516Z,995.16
2022-10-23T08:34:13.911Z,995.15
2022-10-23T08:35:13.167Z,995.07
2022-10-23T08:36:13.382Z,995.06
2022-10-23T08:37:13.494Z,995.06
2022-10-23T08:38:14.027Z,995.01
2022-10-23T08:39:13.337Z,995.03
2022-10-23T08:40:13.557Z,994.99
2022-10-23T08:41:13.501Z,994.99
2022-10-23T08:42:13.897Z,995.00
2022-10-23T08:43:13.148Z,995.03
2022-10-23T08:44:13.243Z,995.03
2022-10-23T08:45:13.345Z,995.03
2022-10-23T08:46:13.596Z,995.04
2022-10-23T08:47:13.573Z,995.07
2022-10-23T08:48:13.464Z,995.06
2022-10-23T08:49:13.403Z,994.99
2022-10-23T08:50:13.414Z,995.01
2022-10-23T08:51:13.695Z,994.99
2022-10-23T08:52:14.200Z,995.01
2022-10-23T08:53:13.773Z,995.01
2022-10-23T08:54:13.877Z,994.97
2022-10-23T08:55:13.774Z,994.95
2022-10-23T08:56:13.759Z,994.97
2022-10-23T08:57:14.037Z,994.98
2022-10-23T08:58:13.529Z,995.00
2022-10-23T08:59:13.448Z,995.01
2022-10-23T09:00:13.293Z,995.00
2022-10-23T09:01:13.426Z,994.93
2022-10-23T09:02:13.772Z,994.96
2022-10-23T09:03:13.882Z,994.93
2022-10-23T09:04:14.094Z,994.93
2022-10-23T09:05:13.234Z,994.89
2022-10-23T09:06:13.545Z,994.91
2022-10-23T09:07:13.479Z,994.87
2022-10-23T09:08:13.388Z,994.87
2022-10-23T09:09:13.561Z,994.83
2022-10-23T09:10:13.638Z,994.88
2022-10-23T09:11:13.871Z,994.87
2022-10-23T09:12:13.902Z,994.90
2022-10-23T09:13:13.196Z,994.92
2022-10-23T09:14:13.517Z,994.87
2022-10-23T09:15:13.435Z,994.87
2022-10-23T09:16:13.499Z,994.90
2022-10-23T09:18:13.877Z,994.82
2022-10-23T09:19:13.654Z,994.79
2022-10-23T09:20:13.556Z,994.81
2022-10-23T09:21:13.496Z,994.82
2022-10-23T09:22:13.732Z,994.84
2022-10-23T09:23:13.557Z,994.83
2022-10-23T09:24:13.424Z,994.86
2022-10-23T09:25:13.606Z,994.86
2022-10-23T09:26:13.881Z,994.84
2022-10-23T09:27:13.869Z,994.83
2022-10-23T09:28:14.095Z,994.84
2022-10-23T09:29:12.990Z,994.86
2022-10-23T09:30:12.890Z,994.82
2022-10-23T09:31:13.677Z,994.75
2022-10-23T09:32:13.567Z,994.75
2022-10-23T09:33:13.683Z,994.73
2022-10-23T09:34:13.556Z,994.69
2022-10-23T09:35:13.474Z,994.69
2022-10-23T09:36:13.368Z,994.72
2022-10-23T09:37:13.410Z,994.69
2022-10-23T09:38:13.524Z,994.71
2022-10-23T09:39:14.225Z,994.69
2022-10-23T09:40:13.291Z,994.66
2022-10-23T09:41:13.429Z,994.64
2022-10-23T09:42:13.483Z,994.59
2022-10-23T09:43:13.778Z,994.55
2022-10-23T09:44:14.081Z,994.53
2022-10-23T09:45:13.087Z,994.54
2022-10-23T09:46:13.118Z,994.49
2022-10-23T09:47:13.078Z,994.51
2022-10-23T09:48:12.987Z,994.48
2022-10-23T09:49:12.844Z,994.43
2022-10-23T09:50:13.744Z,994.38
2022-10-23T09:51:14.036Z,994.39
2022-10-23T09:52:12.933Z,994.41
2022-10-23T09:53:13.236Z,994.37
2022-10-23T09:54:13.240Z,994.32
2022-10-23T09:55:13.264Z,994.30
2022-10-23T09:56:13.730Z,994.34
2022-10-23T09:57:13.743Z,994.33
2022-10-23T09:58:14.087Z,994.34
2022-10-23T09:59:13.417Z,994.28
2022-10-23T10:00:13.263Z,994.32
2022-10-23T10:01:13.421Z,994.33
2022-10-23T10:02:13.786Z,994.35
2022-10-23T10:03:12.777Z,994.39
2022-10-23T10:04:13.670Z,994.36
2022-10-23T10:05:14.399Z,994.39
2022-10-23T10:06:13.275Z,994.36
2022-10-23T10:07:13.546Z,994.34
2022-10-23T10:08:13.498Z,994.33
2022-10-23T10:09:13.314Z,994.40
2022-10-23T10:10:13.206Z,994.34
2022-10-23T10:11:13.146Z,994.35
2022-10-23T10:12:13.400Z,994.32
2022-10-23T10:13:15.066Z,994.31
2022-10-23T10:14:13.221Z,994.27
2022-10-23T10:15:13.263Z,994.29
2022-10-23T10:16:13.112Z,994.30
2022-10-23T10:17:13.122Z,994.24
2022-10-23T10:18:13.725Z,994.21
2022-10-23T10:19:13.833Z,994.21
2022-10-23T10:20:13.885Z,994.21
2022-10-23T10:21:14.074Z,994.18
2022-10-23T10:22:12.936Z,994.14
2022-10-23T10:23:12.944Z,994.16
2022-10-23T10:24:12.769Z,994.20
2022-10-23T10:25:14.195Z,994.10
2022-10-23T10:26:14.887Z,994.10
2022-10-23T10:27:13.108Z,994.15
2022-10-23T10:28:12.981Z,994.11
2022-10-23T10:29:12.965Z,994.10
2022-10-23T10:30:13.142Z,994.12
2022-10-23T10:31:13.325Z,994.11
2022-10-23T10:32:13.161Z,994.09
2022-10-23T10:33:13.428Z,994.04
2022-10-23T10:34:13.266Z,994.00
2022-10-23T10:35:13.173Z,994.00
2022-10-23T10:36:13.136Z,994.02
2022-10-23T10:37:13.060Z,994.01
2022-10-23T10:38:13.202Z,993.96
2022-10-23T10:39:13.495Z,993.93
2022-10-23T10:40:13.348Z,993.87
2022-10-23T10:41:13.376Z,993.88
2022-10-23T10:42:13.244Z,993.86
2022-10-23T10:43:13.580Z,993.80
2022-10-23T10:44:13.614Z,993.82
2022-10-23T10:45:13.633Z,993.83
2022-10-23T10:46:13.598Z,993.79
2022-10-23T10:47:15.961Z,993.78
2022-10-23T10:48:13.841Z,993.75
2022-10-23T10:49:14.298Z,993.74
2022-10-23T10:50:13.265Z,993.71
2022-10-23T10:51:13.784Z,993.71
2022-10-23T10:52:14.049Z,993.67
2022-10-23T10:53:13.382Z,993.66
2022-10-23T10:54:13.600Z,993.66
2022-10-23T10:55:13.755Z,993.66
2022-10-23T10:56:13.923Z,993.65
2022-10-23T10:57:12.785Z,993.63
2022-10-23T10:58:13.798Z,993.58
2022-10-23T10:59:13.841Z,993.58
2022-10-23T11:00:13.955Z,993.54
2022-10-23T11:01:12.927Z,993.52
2022-10-23T11:02:13.133Z,993.51
2022-10-23T11:03:13.178Z,993.44
2022-10-23T11:04:13.462Z,993.41
2022-10-23T11:05:13.322Z,993.41
2022-10-23T11:06:13.247Z,993.46
2022-10-23T11:07:13.271Z,993.45
2022-10-23T11:08:13.209Z,993.51
2022-10-23T11:09:20.336Z,993.51
2022-10-23T11:10:12.911Z,993.48
2022-10-23T11:11:12.920Z,993.44
2022-10-23T11:12:13.209Z,993.43
2022-10-23T11:13:13.201Z,993.36
2022-10-23T11:14:13.158Z,993.35
2022-10-23T11:15:13.161Z,993.34
2022-10-23T11:16:13.022Z,993.35
2022-10-23T11:17:13.139Z,993.37
2022-10-23T11:18:13.026Z,993.31
2022-10-23T11:19:14.169Z,993.28
2022-10-23T11:20:13.601Z,993.26
2022-10-23T11:21:13.507Z,993.23
2022-10-23T11:22:13.525Z,993.22
2022-10-23T11:23:13.450Z,993.20
2022-10-23T11:24:13.276Z,993.18
2022-10-23T11:25:13.155Z,993.19
2022-10-23T11:26:16.209Z,993.13
2022-10-23T11:27:12.751Z,993.15
2022-10-23T11:28:13.777Z,993.09
2022-10-23T11:29:12.859Z,993.09
2022-10-23T11:30:13.964Z,993.05
2022-10-23T11:31:13.117Z,993.02
2022-10-23T11:32:13.248Z,993.00
2022-10-23T11:33:13.520Z,992.98
2022-10-23T11:34:15.010Z,992.96
2022-10-23T11:35:13.159Z,992.98
2022-10-23T11:36:13.190Z,992.90
2022-10-23T11:37:13.360Z,992.89
2022-10-23T11:38:13.496Z,992.89
2022-10-23T11:39:13.479Z,992.88
2022-10-23T11:40:13.616Z,992.89
2022-10-23T11:41:13.685Z,992.81
2022-10-23T11:42:13.797Z,992.83
2022-10-23T11:43:13.885Z,992.82
2022-10-23T11:44:13.791Z,992.79
2022-10-23T11:45:13.746Z,992.74
2022-10-23T11:46:13.647Z,992.74
2022-10-23T11:47:13.482Z,992.68
2022-10-23T11:48:13.606Z,992.62
2022-10-23T11:49:13.500Z,992.63
2022-10-23T11:50:13.593Z,992.58
2022-10-23T11:51:13.552Z,992.56
2022-10-23T11:52:13.774Z,992.53
2022-10-23T11:53:15.105Z,992.56
2022-10-23T11:54:12.970Z,992.52
2022-10-23T11:55:13.031Z,992.50
2022-10-23T11:56:13.040Z,992.44
2022-10-23T11:57:12.990Z,992.46
2022-10-23T11:58:12.895Z,992.49
2022-10-23T11:59:14.098Z,992.52
2022-10-23T12:00:12.990Z,992.53
2022-10-23T12:01:12.964Z,992.60
2022-10-23T12:02:13.529Z,992.58
2022-10-23T12:03:13.346Z,992.55
2022-10-23T12:04:13.187Z,992.55
2022-10-23T12:05:13.104Z,992.57
2022-10-23T12:06:13.179Z,992.55
2022-10-23T12:07:13.287Z,992.48
2022-10-23T12:08:13.315Z,992.55
2022-10-23T12:09:13.326Z,992.57
2022-10-23T12:10:13.440Z,992.59
2022-10-23T12:11:13.389Z,992.52
2022-10-23T12:12:13.578Z,992.54
2022-10-23T12:13:13.471Z,992.51
2022-10-23T12:15:13.683Z,992.41
2022-10-23T12:16:13.729Z,992.39
2022-10-23T12:17:13.789Z,992.35
2022-10-23T12:18:13.620Z,992.35
2022-10-23T12:19:13.619Z,992.34
2022-10-23T12:20:13.653Z,992.33
2022-10-23T12:21:13.518Z,992.28
2022-10-23T12:22:13.449Z,992.23
2022-10-23T12:23:13.429Z,992.23
2022-10-23T12:24:13.575Z,992.20
2022-10-23T12:25:13.452Z,992.13
2022-10-23T12:26:13.274Z,992.13
2022-10-23T12:27:13.068Z,992.18
2022-10-23T12:28:13.275Z,992.12
2022-10-23T12:29:13.205Z,992.10
2022-10-23T12:30:13.195Z,992.05
2022-10-23T12:31:13.488Z,992.04
2022-10-23T12:32:13.604Z,992.05
2022-10-23T12:33:13.470Z,992.12
2022-10-23T12:34:13.440Z,992.24
2022-10-23T12:35:13.412Z,992.19